sensor_id;sensor_type;location;lat;lon;timestamp;pressure;altitude;pressure_sealevel;temperature;humidity
76374;BME280;65197;50.164;8.012;2023-07-13T00:01:18;72225.41;;;-144.13;54.95
76374;BME280;65197;50.164;8.012;2023-07-13T00:03:44;72242.97;;;-144.13;55.31
76374;BME280;65197;50.164;8.012;2023-07-13T00:06:09;72246.84;;;-144.13;55.49
76374;BME280;65197;50.164;8.012;2023-07-13T00:08:35;72250.75;;;-144.13;55.55
76374;BME280;65197;50.164;8.012;2023-07-13T00:11:02;72242.97;;;-144.13;55.97
76374;BME280;65197;50.164;8.012;2023-07-13T00:13:28;72250.75;;;-144.13;55.89
76374;BME280;65197;50.164;8.012;2023-07-13T00:15:54;72244.91;;;-144.13;56.33
76374;BME280;65197;50.164;8.012;2023-07-13T00:18:21;72235.16;;;-144.13;56.27
76374;BME280;65197;50.164;8.012;2023-07-13T00:20:47;72223.47;;;-144.13;56.25
76374;BME280;65197;50.164;8.012;2023-07-13T00:23:12;72231.25;;;-144.13;56.60
76374;BME280;65197;50.164;8.012;2023-07-13T00:25:37;72231.25;;;-144.13;56.57
76374;BME280;65197;50.164;8.012;2023-07-13T00:28:03;72246.84;;;-144.13;56.88
76374;BME280;65197;50.164;8.012;2023-07-13T00:30:28;72250.75;;;-144.13;57.12
76374;BME280;65197;50.164;8.012;2023-07-13T00:32:53;72239.06;;;-144.13;57.11
76374;BME280;65197;50.164;8.012;2023-07-13T00:35:19;72258.56;;;-144.13;57.52
76374;BME280;65197;50.164;8.012;2023-07-13T00:37:44;72254.66;;;-144.13;57.78
76374;BME280;65197;50.164;8.012;2023-07-13T00:40:12;72254.66;;;-144.13;58.12
76374;BME280;65197;50.164;8.012;2023-07-13T00:42:37;72262.47;;;-144.13;58.41
76374;BME280;65197;50.164;8.012;2023-07-13T00:47:38;72270.25;;;-144.13;58.67
76374;BME280;65197;50.164;8.012;2023-07-13T00:50:13;72281.97;;;-144.13;58.97
76374;BME280;65197;50.164;8.012;2023-07-13T00:52:43;72297.56;;;-144.13;59.34
76374;BME280;65197;50.164;8.012;2023-07-13T00:55:11;72305.34;;;-144.13;59.55
76374;BME280;65197;50.164;8.012;2023-07-13T00:57:37;72301.47;;;-144.13;59.67
76374;BME280;65197;50.164;8.012;2023-07-13T01:00:06;72297.56;;;-144.13;60.25
76374;BME280;65197;50.164;8.012;2023-07-13T01:02:39;72319.00;;;-144.13;60.56
76374;BME280;65197;50.164;8.012;2023-07-13T01:05:13;72324.88;;;-144.13;60.86
76374;BME280;65197;50.164;8.012;2023-07-13T01:07:40;72326.81;;;-144.13;60.80
76374;BME280;65197;50.164;8.012;2023-07-13T01:10:07;72328.75;;;-144.13;60.62
76374;BME280;65197;50.164;8.012;2023-07-13T01:12:32;72332.66;;;-144.13;60.56
76374;BME280;65197;50.164;8.012;2023-07-13T01:14:58;72344.38;;;-144.13;61.04
76374;BME280;65197;50.164;8.012;2023-07-13T01:17:26;72340.47;;;-144.13;61.66
76374;BME280;65197;50.164;8.012;2023-07-13T01:19:52;72356.06;;;-144.13;61.96
76374;BME280;65197;50.164;8.012;2023-07-13T01:22:18;72348.25;;;-144.13;61.88
76374;BME280;65197;50.164;8.012;2023-07-13T01:24:46;72359.97;;;-144.13;61.60
76374;BME280;65197;50.164;8.012;2023-07-13T01:27:16;72371.66;;;-144.13;62.19
76374;BME280;65197;50.164;8.012;2023-07-13T01:29:44;72383.38;;;-144.13;62.61
76374;BME280;65197;50.164;8.012;2023-07-13T01:32:14;72391.16;;;-144.13;62.64
76374;BME280;65197;50.164;8.012;2023-07-13T01:34:40;72404.81;;;-144.13;63.60
76374;BME280;65197;50.164;8.012;2023-07-13T01:37:10;72406.78;;;-144.13;63.36
76374;BME280;65197;50.164;8.012;2023-07-13T01:39:36;72412.63;;;-144.13;63.47
76374;BME280;65197;50.164;8.012;2023-07-13T01:42:02;72422.38;;;-144.13;64.00
76374;BME280;65197;50.164;8.012;2023-07-13T01:44:28;72418.47;;;-144.13;64.00
76374;BME280;65197;50.164;8.012;2023-07-13T01:46:53;72404.81;;;-144.13;63.33
76374;BME280;65197;50.164;8.012;2023-07-13T01:49:19;72422.38;;;-144.13;63.64
76374;BME280;65197;50.164;8.012;2023-07-13T01:51:44;72430.16;;;-144.13;61.94
76374;BME280;65197;50.164;8.012;2023-07-13T01:54:10;72402.88;;;-144.13;62.00
76374;BME280;65197;50.164;8.012;2023-07-13T01:56:35;72410.66;;;-144.13;61.87
76374;BME280;65197;50.164;8.012;2023-07-13T01:59:00;72410.66;;;-144.13;61.65
76374;BME280;65197;50.164;8.012;2023-07-13T02:01:26;72410.66;;;-144.13;60.97
76374;BME280;65197;50.164;8.012;2023-07-13T02:03:51;72414.56;;;-144.13;59.24
76374;BME280;65197;50.164;8.012;2023-07-13T02:06:16;72418.47;;;-144.13;59.44
76374;BME280;65197;50.164;8.012;2023-07-13T02:08:42;72418.47;;;-144.13;59.12
76374;BME280;65197;50.164;8.012;2023-07-13T02:11:08;72422.38;;;-144.13;57.76
76374;BME280;65197;50.164;8.012;2023-07-13T02:13:33;72434.06;;;-144.13;58.42
76374;BME280;65197;50.164;8.012;2023-07-13T02:15:58;72449.66;;;-144.13;58.27
76374;BME280;65197;50.164;8.012;2023-07-13T02:18:24;72465.28;;;-144.13;58.55
76374;BME280;65197;50.164;8.012;2023-07-13T02:20:49;72449.66;;;-144.13;57.80
76374;BME280;65197;50.164;8.012;2023-07-13T02:23:15;72461.38;;;-144.13;57.89
76374;BME280;65197;50.164;8.012;2023-07-13T02:25:40;72475.03;;;-144.13;58.61
76374;BME280;65197;50.164;8.012;2023-07-13T02:28:06;72473.06;;;-144.13;58.11
76374;BME280;65197;50.164;8.012;2023-07-13T02:30:32;72480.88;;;-144.13;58.60
76374;BME280;65197;50.164;8.012;2023-07-13T02:32:57;72494.53;;;-144.13;59.22
76374;BME280;65197;50.164;8.012;2023-07-13T02:35:23;72492.56;;;-144.13;58.68
76374;BME280;65197;50.164;8.012;2023-07-13T02:37:48;72517.94;;;-144.13;59.47
76374;BME280;65197;50.164;8.012;2023-07-13T02:40:14;72508.19;;;-144.13;59.24
76374;BME280;65197;50.164;8.012;2023-07-13T02:42:39;72496.47;;;-144.13;59.32
76374;BME280;65197;50.164;8.012;2023-07-13T02:45:06;72500.38;;;-144.13;59.09
76374;BME280;65197;50.164;8.012;2023-07-13T02:47:32;72508.19;;;-144.13;59.18
76374;BME280;65197;50.164;8.012;2023-07-13T02:49:57;72510.13;;;-144.13;58.98
76374;BME280;65197;50.164;8.012;2023-07-13T02:52:23;72506.22;;;-144.13;58.79
76374;BME280;65197;50.164;8.012;2023-07-13T02:54:48;72496.47;;;-144.13;58.72
76374;BME280;65197;50.164;8.012;2023-07-13T02:57:13;72500.38;;;-144.13;58.31
76374;BME280;65197;50.164;8.012;2023-07-13T02:59:39;72480.88;;;-144.13;58.31
76374;BME280;65197;50.164;8.012;2023-07-13T03:02:04;72484.78;;;-144.13;58.71
76374;BME280;65197;50.164;8.012;2023-07-13T03:04:30;72475.03;;;-144.13;58.13
76374;BME280;65197;50.164;8.012;2023-07-13T03:06:55;72482.81;;;-144.13;58.12
76374;BME280;65197;50.164;8.012;2023-07-13T03:09:23;72494.53;;;-144.13;58.67
76374;BME280;65197;50.164;8.012;2023-07-13T03:11:49;72496.47;;;-144.13;58.50
76374;BME280;65197;50.164;8.012;2023-07-13T03:14:14;72519.88;;;-144.13;58.83
76374;BME280;65197;50.164;8.012;2023-07-13T03:16:40;72512.09;;;-144.13;59.08
76374;BME280;65197;50.164;8.012;2023-07-13T03:19:05;72514.03;;;-144.13;59.44
76374;BME280;65197;50.164;8.012;2023-07-13T03:21:31;72519.88;;;-144.13;59.34
76374;BME280;65197;50.164;8.012;2023-07-13T03:23:56;72506.22;;;-144.13;58.76
76374;BME280;65197;50.164;8.012;2023-07-13T03:26:22;72506.22;;;-144.13;58.65
76374;BME280;65197;50.164;8.012;2023-07-13T03:28:47;72521.84;;;-144.13;59.49
76374;BME280;65197;50.164;8.012;2023-07-13T03:31:18;72539.38;;;-144.13;59.98
76374;BME280;65197;50.164;8.012;2023-07-13T03:33:44;72543.28;;;-144.13;60.30
76374;BME280;65197;50.164;8.012;2023-07-13T03:36:17;72545.22;;;-144.13;60.19
76374;BME280;65197;50.164;8.012;2023-07-13T03:38:57;72541.34;;;-144.13;59.99
76374;BME280;65197;50.164;8.012;2023-07-13T03:41:24;72554.97;;;-144.13;59.98
76374;BME280;65197;50.164;8.012;2023-07-13T03:43:50;72551.09;;;-144.13;60.11
76374;BME280;65197;50.164;8.012;2023-07-13T03:46:16;72558.88;;;-144.13;60.11
76374;BME280;65197;50.164;8.012;2023-07-13T03:48:44;72547.19;;;-144.13;60.13
76374;BME280;65197;50.164;8.012;2023-07-13T03:51:12;72527.69;;;-144.13;59.37
76374;BME280;65197;50.164;8.012;2023-07-13T03:53:40;72521.84;;;-144.13;59.56
76374;BME280;65197;50.164;8.012;2023-07-13T03:56:06;72519.88;;;-144.13;59.00
76374;BME280;65197;50.164;8.012;2023-07-13T03:58:34;72510.13;;;-144.13;58.65
76374;BME280;65197;50.164;8.012;2023-07-13T04:01:00;72500.38;;;-144.13;58.52
76374;BME280;65197;50.164;8.012;2023-07-13T04:03:26;72484.78;;;-144.13;58.33
76374;BME280;65197;50.164;8.012;2023-07-13T04:05:55;72494.53;;;-144.13;57.86
76374;BME280;65197;50.164;8.012;2023-07-13T04:08:28;72465.28;;;-144.13;57.33
76374;BME280;65197;50.164;8.012;2023-07-13T04:10:54;72463.31;;;-144.13;57.52
76374;BME280;65197;50.164;8.012;2023-07-13T04:13:19;72459.44;;;-144.13;57.69
76374;BME280;65197;50.164;8.012;2023-07-13T04:15:45;72441.88;;;-144.13;57.61
76374;BME280;65197;50.164;8.012;2023-07-13T04:18:10;72437.97;;;-144.13;57.66
76374;BME280;65197;50.164;8.012;2023-07-13T04:20:35;72410.66;;;-144.13;57.18
76374;BME280;65197;50.164;8.012;2023-07-13T04:23:01;72402.88;;;-144.13;56.54
76374;BME280;65197;50.164;8.012;2023-07-13T04:25:27;72397.03;;;-144.13;57.11
76374;BME280;65197;50.164;8.012;2023-07-13T04:27:53;72377.50;;;-144.13;56.19
76374;BME280;65197;50.164;8.012;2023-07-13T04:30:19;72371.66;;;-144.13;55.38
76374;BME280;65197;50.164;8.012;2023-07-13T04:32:44;72350.22;;;-144.13;55.60
76374;BME280;65197;50.164;8.012;2023-07-13T04:35:10;72328.75;;;-144.13;55.74
76374;BME280;65197;50.164;8.012;2023-07-13T04:37:35;72305.34;;;-144.13;54.95
76374;BME280;65197;50.164;8.012;2023-07-13T04:40:01;72299.50;;;-144.13;54.58
76374;BME280;65197;50.164;8.012;2023-07-13T04:42:27;72291.72;;;-144.13;54.64
76374;BME280;65197;50.164;8.012;2023-07-13T04:44:52;72276.09;;;-144.13;54.46
76374;BME280;65197;50.164;8.012;2023-07-13T04:47:18;72246.84;;;-144.13;53.42
76374;BME280;65197;50.164;8.012;2023-07-13T04:49:44;72223.47;;;-144.13;53.57
76374;BME280;65197;50.164;8.012;2023-07-13T04:52:10;72215.66;;;-144.13;53.60
76374;BME280;65197;50.164;8.012;2023-07-13T04:54:35;72202.00;;;-144.13;52.92
76374;BME280;65197;50.164;8.012;2023-07-13T04:57:03;72196.16;;;-144.13;52.88
76374;BME280;65197;50.164;8.012;2023-07-13T04:59:29;72174.69;;;-144.13;52.03
76374;BME280;65197;50.164;8.012;2023-07-13T05:01:55;72157.16;;;-144.13;51.75
76374;BME280;65197;50.164;8.012;2023-07-13T05:04:20;72129.84;;;-144.13;50.86
76374;BME280;65197;50.164;8.012;2023-07-13T05:06:45;72122.06;;;-144.13;50.92
76374;BME280;65197;50.164;8.012;2023-07-13T05:09:11;72094.75;;;-144.13;50.57
76374;BME280;65197;50.164;8.012;2023-07-13T05:11:37;72094.75;;;-144.13;49.61
76374;BME280;65197;50.164;8.012;2023-07-13T05:14:03;72098.66;;;-144.13;49.34
76374;BME280;65197;50.164;8.012;2023-07-13T05:16:28;72085.00;;;-144.13;49.17
76374;BME280;65197;50.164;8.012;2023-07-13T05:18:54;72061.59;;;-144.13;49.52
76374;BME280;65197;50.164;8.012;2023-07-13T05:21:19;72036.25;;;-144.13;48.64
76374;BME280;65197;50.164;8.012;2023-07-13T05:23:44;72044.06;;;-144.13;47.82
76374;BME280;65197;50.164;8.012;2023-07-13T05:26:11;72036.25;;;-144.13;48.19
76374;BME280;65197;50.164;8.012;2023-07-13T05:28:36;72001.16;;;-144.13;47.27
76374;BME280;65197;50.164;8.012;2023-07-13T05:31:02;72028.44;;;-144.13;47.16
76374;BME280;65197;50.164;8.012;2023-07-13T05:33:28;71997.25;;;-144.13;47.69
76374;BME280;65197;50.164;8.012;2023-07-13T05:35:53;71977.75;;;-144.13;47.95
76374;BME280;65197;50.164;8.012;2023-07-13T05:38:19;71975.81;;;-144.13;46.40
76374;BME280;65197;50.164;8.012;2023-07-13T05:40:45;71952.41;;;-144.13;46.17
76374;BME280;65197;50.164;8.012;2023-07-13T05:43:11;71969.94;;;-144.13;45.63
76374;BME280;65197;50.164;8.012;2023-07-13T05:45:37;71954.34;;;-144.13;45.63
76374;BME280;65197;50.164;8.012;2023-07-13T05:48:03;71954.34;;;-144.13;45.58
76374;BME280;65197;50.164;8.012;2023-07-13T05:50:28;71958.25;;;-144.13;45.72
76374;BME280;65197;50.164;8.012;2023-07-13T05:52:53;71925.09;;;-144.13;45.03
76374;BME280;65197;50.164;8.012;2023-07-13T05:55:19;71942.66;;;-144.13;45.57
76374;BME280;65197;50.164;8.012;2023-07-13T05:57:45;71927.06;;;-144.13;45.56
76374;BME280;65197;50.164;8.012;2023-07-13T06:00:11;71895.84;;;-144.13;45.79
76374;BME280;65197;50.164;8.012;2023-07-13T06:02:36;71929.00;;;-144.13;45.56
76374;BME280;65197;50.164;8.012;2023-07-13T06:05:02;71907.56;;;-144.13;45.00
76374;BME280;65197;50.164;8.012;2023-07-13T06:07:27;71847.09;;;-144.13;45.43
76374;BME280;65197;50.164;8.012;2023-07-13T06:09:53;71802.25;;;-144.13;43.77
76374;BME280;65197;50.164;8.012;2023-07-13T06:12:18;71724.25;;;-144.13;42.16
76374;BME280;65197;50.164;8.012;2023-07-13T06:14:44;71714.50;;;-144.13;41.74
76374;BME280;65197;50.164;8.012;2023-07-13T06:17:09;71624.81;;;-144.13;40.81
76374;BME280;65197;50.164;8.012;2023-07-13T06:19:35;71583.88;;;-144.13;38.97
76374;BME280;65197;50.164;8.012;2023-07-13T06:22:00;71618.97;;;-144.13;39.93
76374;BME280;65197;50.164;8.012;2023-07-13T06:24:26;71618.97;;;-144.13;39.03
76374;BME280;65197;50.164;8.012;2023-07-13T06:26:51;71646.28;;;-144.13;39.48
76374;BME280;65197;50.164;8.012;2023-07-13T06:29:17;71576.06;;;-144.13;38.88
76374;BME280;65197;50.164;8.012;2023-07-13T06:31:42;71552.69;;;-144.13;38.02
76374;BME280;65197;50.164;8.012;2023-07-13T06:34:08;71533.19;;;-144.13;37.23
76374;BME280;65197;50.164;8.012;2023-07-13T06:36:33;71568.28;;;-144.13;37.26
76374;BME280;65197;50.164;8.012;2023-07-13T06:38:59;71591.69;;;-144.13;37.78
76374;BME280;65197;50.164;8.012;2023-07-13T06:41:24;71542.94;;;-144.13;38.44
76374;BME280;65197;50.164;8.012;2023-07-13T06:43:51;71474.69;;;-144.13;37.58
76374;BME280;65197;50.164;8.012;2023-07-13T06:46:17;71466.91;;;-144.13;36.85
76374;BME280;65197;50.164;8.012;2023-07-13T06:48:43;71385.00;;;-144.13;36.80
76374;BME280;65197;50.164;8.012;2023-07-13T06:51:08;71342.13;;;-144.13;35.40
76374;BME280;65197;50.164;8.012;2023-07-13T06:53:34;71371.34;;;-144.13;35.74
76374;BME280;65197;50.164;8.012;2023-07-13T06:55:59;71347.97;;;-144.13;35.04
76374;BME280;65197;50.164;8.012;2023-07-13T06:58:24;71367.47;;;-144.13;35.75
76374;BME280;65197;50.164;8.012;2023-07-13T07:00:51;71266.06;;;-144.13;35.22
76374;BME280;65197;50.164;8.012;2023-07-13T07:03:17;71283.63;;;-144.13;34.64
76374;BME280;65197;50.164;8.012;2023-07-13T07:05:42;71367.47;;;-144.13;34.02
76374;BME280;65197;50.164;8.012;2023-07-13T07:08:08;71400.59;;;-144.13;35.40
76374;BME280;65197;50.164;8.012;2023-07-13T07:10:34;71431.81;;;-144.13;35.38
76374;BME280;65197;50.164;8.012;2023-07-13T07:12:59;71529.28;;;-144.13;36.51
76374;BME280;65197;50.164;8.012;2023-07-13T07:15:25;71537.09;;;-144.13;36.66
76374;BME280;65197;50.164;8.012;2023-07-13T07:17:51;71455.19;;;-144.13;35.78
76374;BME280;65197;50.164;8.012;2023-07-13T07:20:16;71328.47;;;-144.13;35.24
76374;BME280;65197;50.164;8.012;2023-07-13T07:22:42;71291.41;;;-144.13;33.56
76374;BME280;65197;50.164;8.012;2023-07-13T07:25:07;71349.91;;;-144.13;34.46
76374;BME280;65197;50.164;8.012;2023-07-13T07:27:33;71367.47;;;-144.13;34.71
76374;BME280;65197;50.164;8.012;2023-07-13T07:29:59;71388.91;;;-144.13;34.23
76374;BME280;65197;50.164;8.012;2023-07-13T07:32:25;71416.19;;;-144.13;34.95
76374;BME280;65197;50.164;8.012;2023-07-13T07:34:50;71420.09;;;-144.13;34.90
76374;BME280;65197;50.164;8.012;2023-07-13T07:37:16;71502.00;;;-144.13;35.56
76374;BME280;65197;50.164;8.012;2023-07-13T07:39:42;71408.41;;;-144.13;34.72
76374;BME280;65197;50.164;8.012;2023-07-13T07:42:08;71346.00;;;-144.13;34.32
76374;BME280;65197;50.164;8.012;2023-07-13T07:44:33;71295.31;;;-144.13;33.21
76374;BME280;65197;50.164;8.012;2023-07-13T07:46:59;71363.56;;;-144.13;33.41
76374;BME280;65197;50.164;8.012;2023-07-13T07:49:25;71379.16;;;-144.13;33.68
76374;BME280;65197;50.164;8.012;2023-07-13T07:51:50;71377.22;;;-144.13;34.02
76374;BME280;65197;50.164;8.012;2023-07-13T07:54:16;71494.19;;;-144.13;34.64
76374;BME280;65197;50.164;8.012;2023-07-13T07:56:41;71579.97;;;-144.13;35.23
76374;BME280;65197;50.164;8.012;2023-07-13T07:59:07;71636.53;;;-144.13;36.40
76374;BME280;65197;50.164;8.012;2023-07-13T08:01:32;71669.66;;;-144.13;36.41
76374;BME280;65197;50.164;8.012;2023-07-13T08:03:57;71630.66;;;-144.13;36.21
76374;BME280;65197;50.164;8.012;2023-07-13T08:06:23;71568.28;;;-144.13;34.93
76374;BME280;65197;50.164;8.012;2023-07-13T08:08:49;71529.28;;;-144.13;35.84
76374;BME280;65197;50.164;8.012;2023-07-13T08:11:14;71574.13;;;-144.13;36.23
76374;BME280;65197;50.164;8.012;2023-07-13T08:13:40;71474.69;;;-144.13;34.77
76374;BME280;65197;50.164;8.012;2023-07-13T08:16:06;71369.41;;;-144.13;33.56
76374;BME280;65197;50.164;8.012;2023-07-13T08:18:32;71422.03;;;-144.13;33.20
76374;BME280;65197;50.164;8.012;2023-07-13T08:20:57;71400.59;;;-144.13;34.00
76374;BME280;65197;50.164;8.012;2023-07-13T08:23:24;71381.09;;;-144.13;33.83
76374;BME280;65197;50.164;8.012;2023-07-13T08:25:51;71334.31;;;-144.13;32.94
76374;BME280;65197;50.164;8.012;2023-07-13T08:28:16;71330.41;;;-144.13;32.70
76374;BME280;65197;50.164;8.012;2023-07-13T08:30:42;71318.72;;;-144.13;32.24
76374;BME280;65197;50.164;8.012;2023-07-13T08:33:07;71273.88;;;-144.13;32.95
76374;BME280;65197;50.164;8.012;2023-07-13T08:35:32;71209.53;;;-144.13;32.21
76374;BME280;65197;50.164;8.012;2023-07-13T08:37:58;71248.53;;;-144.13;31.79
76374;BME280;65197;50.164;8.012;2023-07-13T08:40:25;71268.03;;;-144.13;32.46
76374;BME280;65197;50.164;8.012;2023-07-13T08:42:57;71351.84;;;-144.13;33.02
76374;BME280;65197;50.164;8.012;2023-07-13T08:45:38;71381.09;;;-144.13;33.31
76374;BME280;65197;50.164;8.012;2023-07-13T08:48:20;71347.97;;;-144.13;32.79
76374;BME280;65197;50.164;8.012;2023-07-13T08:51:00;71334.31;;;-144.13;32.94
76374;BME280;65197;50.164;8.012;2023-07-13T08:53:35;71349.91;;;-144.13;32.28
76374;BME280;65197;50.164;8.012;2023-07-13T08:56:03;71396.69;;;-144.13;33.17
76374;BME280;65197;50.164;8.012;2023-07-13T08:58:30;71357.72;;;-144.13;32.56
76374;BME280;65197;50.164;8.012;2023-07-13T09:01:06;71416.19;;;-144.13;32.47
76374;BME280;65197;50.164;8.012;2023-07-13T09:04:19;71449.34;;;-144.13;32.78
76374;BME280;65197;50.164;8.012;2023-07-13T09:14:42;71256.31;;;-144.13;31.52
76374;BME280;65197;50.164;8.012;2023-07-13T09:17:14;71240.72;;;-144.13;31.20
76374;BME280;65197;50.164;8.012;2023-07-13T09:19:41;71186.16;;;-144.13;31.74
76374;BME280;65197;50.164;8.012;2023-07-13T09:22:12;71190.03;;;-144.13;30.68
76374;BME280;65197;50.164;8.012;2023-07-13T09:27:19;71308.97;;;-144.13;32.12
76374;BME280;65197;50.164;8.012;2023-07-13T09:29:49;71281.69;;;-144.13;31.84
76374;BME280;65197;50.164;8.012;2023-07-13T09:32:18;71201.75;;;-144.13;31.59
76374;BME280;65197;50.164;8.012;2023-07-13T09:34:53;71221.22;;;-144.13;31.09
76374;BME280;65197;50.164;8.012;2023-07-13T09:37:21;71158.84;;;-144.13;31.38
76374;BME280;65197;50.164;8.012;2023-07-13T09:39:49;71115.97;;;-144.13;29.94
76374;BME280;65197;50.164;8.012;2023-07-13T09:42:19;71069.16;;;-144.13;29.72
76374;BME280;65197;50.164;8.012;2023-07-13T09:44:59;71026.28;;;-144.13;29.71
76374;BME280;65197;50.164;8.012;2023-07-13T09:47:29;71082.81;;;-144.13;29.75
76374;BME280;65197;50.164;8.012;2023-07-13T09:49:57;71076.97;;;-144.13;29.70
76374;BME280;65197;50.164;8.012;2023-07-13T09:52:23;70995.09;;;-144.13;29.38
76374;BME280;65197;50.164;8.012;2023-07-13T09:54:50;70952.19;;;-144.13;29.14
76374;BME280;65197;50.164;8.012;2023-07-13T09:57:18;70956.09;;;-144.13;29.46
76374;BME280;65197;50.164;8.012;2023-07-13T09:59:49;71141.31;;;-144.13;29.93
76374;BME280;65197;50.164;8.012;2023-07-13T10:02:31;71000.94;;;-144.13;29.27
76374;BME280;65197;50.164;8.012;2023-07-13T10:05:01;71061.38;;;-144.13;28.85
76374;BME280;65197;50.164;8.012;2023-07-13T10:07:29;71049.66;;;-144.13;29.80
76374;BME280;65197;50.164;8.012;2023-07-13T10:09:56;71049.66;;;-144.13;28.77
76374;BME280;65197;50.164;8.012;2023-07-13T10:12:22;71092.56;;;-144.13;29.53
76374;BME280;65197;50.164;8.012;2023-07-13T10:14:57;71203.69;;;-144.13;29.99
76374;BME280;65197;50.164;8.012;2023-07-13T10:17:31;71221.22;;;-144.13;29.50
76374;BME280;65197;50.164;8.012;2023-07-13T10:20:00;71090.63;;;-144.13;29.27
76374;BME280;65197;50.164;8.012;2023-07-13T10:22:42;71092.56;;;-144.13;29.76
76374;BME280;65197;50.164;8.012;2023-07-13T10:25:23;71030.19;;;-144.13;28.82
76374;BME280;65197;50.164;8.012;2023-07-13T10:27:52;71028.22;;;-144.13;28.82
76374;BME280;65197;50.164;8.012;2023-07-13T10:30:22;71100.38;;;-144.13;28.82
76374;BME280;65197;50.164;8.012;2023-07-13T10:32:51;71036.03;;;-144.13;29.19
76374;BME280;65197;50.164;8.012;2023-07-13T10:35:18;70971.69;;;-144.13;27.67
76374;BME280;65197;50.164;8.012;2023-07-13T10:37:50;71012.63;;;-144.13;27.97
76374;BME280;65197;50.164;8.012;2023-07-13T10:40:23;70983.38;;;-144.13;28.53
76374;BME280;65197;50.164;8.012;2023-07-13T10:42:52;70995.09;;;-144.13;27.59
76374;BME280;65197;50.164;8.012;2023-07-13T10:45:22;71096.47;;;-144.13;28.37
76374;BME280;65197;50.164;8.012;2023-07-13T10:47:51;71225.13;;;-144.13;29.69
76374;BME280;65197;50.164;8.012;2023-07-13T10:50:23;71361.59;;;-144.13;30.92
76374;BME280;65197;50.164;8.012;2023-07-13T10:52:54;71349.91;;;-144.13;30.80
76374;BME280;65197;50.164;8.012;2023-07-13T10:55:58;71197.84;;;-144.13;30.75
76374;BME280;65197;50.164;8.012;2023-07-13T10:58:39;71299.22;;;-144.13;30.38
76374;BME280;65197;50.164;8.012;2023-07-13T11:01:17;71340.16;;;-144.13;30.90
76374;BME280;65197;50.164;8.012;2023-07-13T11:08:54;71082.81;;;-144.13;29.21
76374;BME280;65197;50.164;8.012;2023-07-13T11:16:35;71234.88;;;-144.13;30.12
76374;BME280;65197;50.164;8.012;2023-07-13T11:21:27;71026.28;;;-144.13;28.65
76374;BME280;65197;50.164;8.012;2023-07-13T11:24:01;70971.69;;;-144.13;28.21
76374;BME280;65197;50.164;8.012;2023-07-13T11:29:14;71061.38;;;-144.13;29.72
76374;BME280;65197;50.164;8.012;2023-07-13T11:31:58;71211.50;;;-144.13;29.91
76374;BME280;65197;50.164;8.012;2023-07-13T11:34:30;71322.63;;;-144.13;30.39
76374;BME280;65197;50.164;8.012;2023-07-13T11:36:59;71347.97;;;-144.13;30.80
76374;BME280;65197;50.164;8.012;2023-07-13T11:39:31;71363.56;;;-144.13;31.29
76374;BME280;65197;50.164;8.012;2023-07-13T11:42:00;71390.84;;;-144.13;31.25
76374;BME280;65197;50.164;8.012;2023-07-13T11:44:29;71301.16;;;-144.13;31.12
76374;BME280;65197;50.164;8.012;2023-07-13T11:46:57;71141.31;;;-144.13;30.15
76374;BME280;65197;50.164;8.012;2023-07-13T11:49:26;70999.00;;;-144.13;29.14
76374;BME280;65197;50.164;8.012;2023-07-13T11:51:53;70989.25;;;-144.13;27.67
76374;BME280;65197;50.164;8.012;2023-07-13T11:54:28;70979.50;;;-144.13;27.77
76374;BME280;65197;50.164;8.012;2023-07-13T11:59:38;71149.09;;;-144.13;29.51
76374;BME280;65197;50.164;8.012;2023-07-13T12:02:15;71232.94;;;-144.13;30.08
76374;BME280;65197;50.164;8.012;2023-07-13T12:04:42;71297.28;;;-144.13;30.64
76374;BME280;65197;50.164;8.012;2023-07-13T12:07:16;71244.63;;;-144.13;29.80
76374;BME280;65197;50.164;8.012;2023-07-13T12:09:42;71201.75;;;-144.13;29.41
76374;BME280;65197;50.164;8.012;2023-07-13T12:12:12;71244.63;;;-144.13;30.36
76374;BME280;65197;50.164;8.012;2023-07-13T12:14:38;71240.72;;;-144.13;30.06
76374;BME280;65197;50.164;8.012;2023-07-13T12:17:21;71318.72;;;-144.13;30.73
76374;BME280;65197;50.164;8.012;2023-07-13T12:19:51;71322.63;;;-144.13;31.26
76374;BME280;65197;50.164;8.012;2023-07-13T12:22:19;71318.72;;;-144.13;30.91
76374;BME280;65197;50.164;8.012;2023-07-13T12:24:46;71336.25;;;-144.13;30.55
76374;BME280;65197;50.164;8.012;2023-07-13T12:27:24;71361.59;;;-144.13;30.52
76374;BME280;65197;50.164;8.012;2023-07-13T12:30:04;71392.81;;;-144.13;31.38
76374;BME280;65197;50.164;8.012;2023-07-13T12:32:31;71385.00;;;-144.13;31.96
76374;BME280;65197;50.164;8.012;2023-07-13T12:35:17;71427.91;;;-144.13;31.96
76374;BME280;65197;50.164;8.012;2023-07-13T12:37:45;71463.00;;;-144.13;33.21
76374;BME280;65197;50.164;8.012;2023-07-13T12:40:19;71482.50;;;-144.13;33.44
76374;BME280;65197;50.164;8.012;2023-07-13T12:42:46;71517.59;;;-144.13;33.53
76374;BME280;65197;50.164;8.012;2023-07-13T12:45:25;71482.50;;;-144.13;33.24
76374;BME280;65197;50.164;8.012;2023-07-13T12:48:05;71503.94;;;-144.13;33.93
76374;BME280;65197;50.164;8.012;2023-07-13T12:50:38;71509.78;;;-144.13;34.03
76374;BME280;65197;50.164;8.012;2023-07-13T12:53:13;71537.09;;;-144.13;34.29
76374;BME280;65197;50.164;8.012;2023-07-13T12:55:53;71579.97;;;-144.13;34.54
76374;BME280;65197;50.164;8.012;2023-07-13T12:58:38;71615.06;;;-144.13;34.92
76374;BME280;65197;50.164;8.012;2023-07-13T13:01:04;71659.91;;;-144.13;35.17
76374;BME280;65197;50.164;8.012;2023-07-13T13:03:37;71689.16;;;-144.13;35.78
76374;BME280;65197;50.164;8.012;2023-07-13T13:06:05;71665.78;;;-144.13;35.79
76374;BME280;65197;50.164;8.012;2023-07-13T13:08:33;71630.66;;;-144.13;36.07
76374;BME280;65197;50.164;8.012;2023-07-13T13:10:58;71618.97;;;-144.13;35.49
76374;BME280;65197;50.164;8.012;2023-07-13T13:13:24;71620.91;;;-144.13;35.19
76374;BME280;65197;50.164;8.012;2023-07-13T13:15:50;71587.78;;;-144.13;35.31